Time;durP1;ratioP1;P1;durP2;ratioP2;P2;SDS_P1;SDS_P2;PMS_P1;PMS_P2;Temp;Humidity;BMP_temperature;BMP_pressure;BME280_temperature;BME280_humidity;BME280_pressure;Samples;Min_cycle;Max_cycle;Signal;HPM_P1;HPM_P2
2022/03/09 00:01:34;;;;;;;9.70;4.40;;;;;;;;;;6199586;23;21212;-52
2022/03/09 00:04:00;;;;;;;8.07;6.33;;;;;;;;;;6201816;23;20376;-52
2022/03/09 00:06:26;;;;;;;9.90;5.57;;;;;;;;;;6201154;23;20355;-52
2022/03/09 00:08:52;;;;;;;9.43;4.70;;;;;;;;;;6201607;23;20152;-53
2022/03/09 00:11:18;;;;;;;8.10;5.30;;;;;;;;;;6201049;23;20378;-52
2022/03/09 00:13:44;;;;;;;8.33;4.93;;;;;;;;;;6200202;23;20430;-52
2022/03/09 00:16:10;;;;;;;7.17;5.03;;;;;;;;;;6200487;23;20394;-52
2022/03/09 00:18:36;;;;;;;6.90;5.30;;;;;;;;;;6201710;23;20376;-52
2022/03/09 00:21:02;;;;;;;5.97;4.60;;;;;;;;;;6200995;23;20379;-52
2022/03/09 00:23:28;;;;;;;10.23;5.53;;;;;;;;;;6198751;23;20370;-52
2022/03/09 00:25:54;;;;;;;8.97;5.33;;;;;;;;;;6202181;23;20371;-52
2022/03/09 00:28:20;;;;;;;9.93;4.70;;;;;;;;;;6200994;23;20378;-52
2022/03/09 00:30:46;;;;;;;7.00;4.70;;;;;;;;;;6202316;23;20372;-53
2022/03/09 00:33:12;;;;;;;8.50;5.50;;;;;;;;;;6200510;23;20178;-53
2022/03/09 00:35:43;;;;;;;8.80;5.70;;;;;;;;;;6201521;23;20392;-52
2022/03/09 00:38:09;;;;;;;6.93;4.67;;;;;;;;;;6203260;23;20416;-53
2022/03/09 00:40:35;;;;;;;6.97;4.77;;;;;;;;;;6203182;23;20410;-52
2022/03/09 00:43:01;;;;;;;6.83;5.20;;;;;;;;;;6200165;23;20379;-51
2022/03/09 00:45:27;;;;;;;11.40;5.93;;;;;;;;;;6201674;23;20439;-52
2022/03/09 00:47:53;;;;;;;5.43;4.43;;;;;;;;;;6202169;23;20399;-52
2022/03/09 00:50:19;;;;;;;9.13;5.60;;;;;;;;;;6201310;23;20378;-52
2022/03/09 00:52:47;;;;;;;8.40;6.30;;;;;;;;;;6200452;23;20367;-51
2022/03/09 00:55:13;;;;;;;12.77;5.73;;;;;;;;;;6202622;23;20626;-52
2022/03/09 00:57:39;;;;;;;8.90;4.80;;;;;;;;;;6200323;23;20371;-55
2022/03/09 01:00:05;;;;;;;6.57;4.47;;;;;;;;;;6203782;23;20385;-52
2022/03/09 01:02:31;;;;;;;12.23;5.83;;;;;;;;;;6203416;23;20395;-53
2022/03/09 01:04:57;;;;;;;11.73;4.33;;;;;;;;;;6204960;23;20371;-53
2022/03/09 01:07:23;;;;;;;8.47;6.40;;;;;;;;;;6203816;23;20380;-54
2022/03/09 01:09:49;;;;;;;7.10;5.47;;;;;;;;;;6202874;23;20399;-52
2022/03/09 01:12:15;;;;;;;7.10;5.17;;;;;;;;;;6201647;23;20391;-52
2022/03/09 01:14:41;;;;;;;7.03;4.87;;;;;;;;;;6200121;23;20435;-52
2022/03/09 01:17:07;;;;;;;8.67;5.20;;;;;;;;;;6202758;23;20387;-52
2022/03/09 01:19:33;;;;;;;6.73;3.87;;;;;;;;;;6202344;23;20724;-52
2022/03/09 01:21:59;;;;;;;8.43;5.70;;;;;;;;;;6202633;23;20372;-56
2022/03/09 01:24:25;;;;;;;11.63;5.10;;;;;;;;;;6203121;23;20372;-52
2022/03/09 01:26:51;;;;;;;9.63;5.13;;;;;;;;;;6202018;23;20364;-52
2022/03/09 01:29:17;;;;;;;13.33;6.93;;;;;;;;;;6201300;23;20356;-53
2022/03/09 01:31:43;;;;;;;6.33;4.47;;;;;;;;;;6201093;23;20373;-53
2022/03/09 01:34:09;;;;;;;8.37;5.90;;;;;;;;;;6201614;23;20438;-52
2022/03/09 01:36:37;;;;;;;8.80;4.07;;;;;;;;;;6200700;23;20368;-52
2022/03/09 01:39:03;;;;;;;8.70;4.80;;;;;;;;;;6201639;23;21322;-55
2022/03/09 01:41:29;;;;;;;9.07;5.23;;;;;;;;;;6201503;23;20395;-52
2022/03/09 01:44:04;;;;;;;10.27;6.17;;;;;;;;;;6202900;23;20939;-52
2022/03/09 01:46:30;;;;;;;9.40;5.73;;;;;;;;;;6203637;23;20379;-53
2022/03/09 01:48:56;;;;;;;9.63;5.30;;;;;;;;;;6202868;23;21229;-52
2022/03/09 01:51:23;;;;;;;9.00;6.13;;;;;;;;;;6204293;23;20367;-53
2022/03/09 01:53:49;;;;;;;6.40;5.03;;;;;;;;;;6203531;23;20187;-52
2022/03/09 01:56:15;;;;;;;8.80;5.33;;;;;;;;;;6203116;23;20399;-52
2022/03/09 01:58:41;;;;;;;7.07;4.43;;;;;;;;;;6203946;23;20447;-52
2022/03/09 02:01:07;;;;;;;6.37;3.97;;;;;;;;;;6201634;23;20382;-51
2022/03/09 02:03:33;;;;;;;7.90;4.60;;;;;;;;;;6202214;23;20375;-52
2022/03/09 02:06:00;;;;;;;7.90;5.53;;;;;;;;;;6200689;23;20379;-52
2022/03/09 02:11:15;;;;;;;8.23;5.70;;;;;;;;;;6156150;23;20893;-52
2022/03/09 02:13:41;;;;;;;8.57;4.77;;;;;;;;;;6203157;23;20425;-52
2022/03/09 02:16:07;;;;;;;5.83;4.10;;;;;;;;;;6203173;23;20395;-52
2022/03/09 02:18:33;;;;;;;11.13;6.07;;;;;;;;;;6202391;23;20395;-51
2022/03/09 02:21:00;;;;;;;8.57;5.80;;;;;;;;;;6204145;23;20386;-52
2022/03/09 02:23:26;;;;;;;7.03;5.33;;;;;;;;;;6200889;23;20278;-52
2022/03/09 02:25:52;;;;;;;8.77;4.27;;;;;;;;;;6202852;23;20411;-52
2022/03/09 02:28:18;;;;;;;7.87;4.67;;;;;;;;;;6203011;23;20457;-52
2022/03/09 02:30:44;;;;;;;6.80;4.97;;;;;;;;;;6203388;23;20387;-52
2022/03/09 02:33:10;;;;;;;9.07;5.13;;;;;;;;;;6202936;23;20408;-53
2022/03/09 02:35:36;;;;;;;7.83;5.03;;;;;;;;;;6201235;23;20442;-52
2022/03/09 02:38:02;;;;;;;7.43;5.00;;;;;;;;;;6203217;23;20934;-53
2022/03/09 02:40:28;;;;;;;7.80;4.20;;;;;;;;;;6202476;23;20422;-53
2022/03/09 02:42:54;;;;;;;10.17;4.63;;;;;;;;;;6200378;23;20376;-53
2022/03/09 02:45:20;;;;;;;9.77;5.40;;;;;;;;;;6203947;23;20383;-52
2022/03/09 02:47:46;;;;;;;8.60;5.70;;;;;;;;;;6203469;23;20399;-52
2022/03/09 02:50:13;;;;;;;7.87;3.93;;;;;;;;;;6203935;23;20416;-52
2022/03/09 02:52:39;;;;;;;8.67;5.20;;;;;;;;;;6201803;23;21168;-52
2022/03/09 02:55:06;;;;;;;9.47;5.50;;;;;;;;;;6202304;23;20743;-53
2022/03/09 02:57:32;;;;;;;6.10;4.60;;;;;;;;;;6200134;23;20381;-52
2022/03/09 02:59:58;;;;;;;5.40;4.20;;;;;;;;;;6200725;23;20483;-52
2022/03/09 03:02:24;;;;;;;7.20;5.60;;;;;;;;;;6201305;23;20182;-53
2022/03/09 03:04:50;;;;;;;9.07;6.40;;;;;;;;;;6202711;23;20450;-52
2022/03/09 03:07:16;;;;;;;10.00;5.80;;;;;;;;;;6201593;23;20386;-53
2022/03/09 03:09:42;;;;;;;8.30;4.10;;;;;;;;;;6200075;23;20447;-52
2022/03/09 03:12:08;;;;;;;5.57;4.47;;;;;;;;;;6200184;23;20987;-52
2022/03/09 03:14:34;;;;;;;5.93;5.27;;;;;;;;;;6202934;23;20435;-52
2022/03/09 03:17:00;;;;;;;6.83;4.07;;;;;;;;;;6201752;23;20513;-53
2022/03/09 03:19:26;;;;;;;9.07;5.17;;;;;;;;;;6202116;23;20386;-52
2022/03/09 03:21:52;;;;;;;9.20;4.17;;;;;;;;;;6201822;23;20399;-53
2022/03/09 03:24:18;;;;;;;9.13;4.67;;;;;;;;;;6203005;23;20410;-52
2022/03/09 03:26:44;;;;;;;10.23;4.77;;;;;;;;;;6202027;23;20840;-53
2022/03/09 03:29:10;;;;;;;10.70;5.30;;;;;;;;;;6201643;23;20449;-53
2022/03/09 03:31:35;;;;;;;8.80;6.27;;;;;;;;;;6200970;23;20430;-52
2022/03/09 03:34:02;;;;;;;10.07;4.17;;;;;;;;;;6200617;23;20434;-53
2022/03/09 03:36:28;;;;;;;7.50;4.77;;;;;;;;;;6200110;23;20386;-51
2022/03/09 03:38:54;;;;;;;7.23;4.00;;;;;;;;;;6199557;23;20387;-54
2022/03/09 03:41:20;;;;;;;6.70;4.70;;;;;;;;;;6197446;23;20387;-51
2022/03/09 03:43:46;;;;;;;5.70;3.70;;;;;;;;;;6196756;23;20882;-54
2022/03/09 03:46:11;;;;;;;14.53;4.60;;;;;;;;;;6197300;23;20407;-53
2022/03/09 03:48:37;;;;;;;8.60;5.07;;;;;;;;;;6199473;23;20383;-52
2022/03/09 03:51:03;;;;;;;11.93;4.23;;;;;;;;;;6200934;23;20375;-51
2022/03/09 03:53:29;;;;;;;11.30;4.40;;;;;;;;;;6199912;23;20418;-51
2022/03/09 03:55:55;;;;;;;5.37;4.07;;;;;;;;;;6198558;23;20392;-55
2022/03/09 03:58:21;;;;;;;7.80;4.10;;;;;;;;;;6201679;23;20371;-51
2022/03/09 04:00:48;;;;;;;7.10;4.80;;;;;;;;;;6202547;23;20383;-54
2022/03/09 04:03:14;;;;;;;5.80;4.07;;;;;;;;;;6203963;23;20375;-52
2022/03/09 04:05:40;;;;;;;5.77;4.30;;;;;;;;;;6206949;23;20384;-51
2022/03/09 04:08:06;;;;;;;8.63;4.87;;;;;;;;;;6205259;23;20927;-52
2022/03/09 04:10:32;;;;;;;6.40;4.03;;;;;;;;;;6201665;23;20375;-52
2022/03/09 04:13:00;;;;;;;7.60;4.70;;;;;;;;;;6203146;23;20379;-53
2022/03/09 04:15:26;;;;;;;5.00;4.50;;;;;;;;;;6202823;23;20453;-52
2022/03/09 04:17:52;;;;;;;6.33;4.30;;;;;;;;;;6203896;23;20384;-52
2022/03/09 04:20:19;;;;;;;4.63;3.60;;;;;;;;;;6207348;23;20510;-51
2022/03/09 04:22:45;;;;;;;7.80;5.33;;;;;;;;;;6204178;23;21104;-53
2022/03/09 04:25:11;;;;;;;6.17;3.37;;;;;;;;;;6203610;23;20402;-52
2022/03/09 04:27:37;;;;;;;5.20;3.87;;;;;;;;;;6201985;23;20793;-51
2022/03/09 04:30:04;;;;;;;9.93;6.00;;;;;;;;;;6202344;23;20402;-52
2022/03/09 04:32:31;;;;;;;9.20;6.50;;;;;;;;;;6202886;23;20371;-52
2022/03/09 04:34:57;;;;;;;13.13;6.73;;;;;;;;;;6198020;23;20517;-52
2022/03/09 04:37:23;;;;;;;13.07;7.90;;;;;;;;;;6203248;23;20399;-52
2022/03/09 04:39:49;;;;;;;10.77;5.97;;;;;;;;;;6201085;23;20433;-52
2022/03/09 04:42:15;;;;;;;15.87;7.80;;;;;;;;;;6198700;23;20881;-54
2022/03/09 04:44:41;;;;;;;11.27;7.73;;;;;;;;;;6200567;23;20486;-52
2022/03/09 04:47:07;;;;;;;18.87;9.10;;;;;;;;;;6201839;23;21186;-55
2022/03/09 04:49:32;;;;;;;16.43;8.57;;;;;;;;;;6200419;23;20375;-52
2022/03/09 04:51:58;;;;;;;15.10;8.23;;;;;;;;;;6200477;23;20471;-52
2022/03/09 04:54:24;;;;;;;13.93;8.53;;;;;;;;;;6199087;23;20489;-51
2022/03/09 04:56:50;;;;;;;7.40;5.10;;;;;;;;;;6199932;23;20490;-56
2022/03/09 04:59:17;;;;;;;14.87;6.97;;;;;;;;;;6200150;23;20474;-52
2022/03/09 05:01:43;;;;;;;10.03;8.20;;;;;;;;;;6200288;23;20364;-52
2022/03/09 05:04:09;;;;;;;10.50;6.30;;;;;;;;;;6198964;23;20376;-52
2022/03/09 05:06:35;;;;;;;14.13;7.10;;;;;;;;;;6201538;23;20381;-52
2022/03/09 05:09:01;;;;;;;11.63;6.77;;;;;;;;;;6200461;23;20721;-52
2022/03/09 05:11:26;;;;;;;10.33;5.70;;;;;;;;;;6199801;23;20371;-53
2022/03/09 05:13:52;;;;;;;7.17;5.17;;;;;;;;;;6199526;23;20438;-52
2022/03/09 05:16:18;;;;;;;10.70;6.53;;;;;;;;;;6200654;23;20384;-53
2022/03/09 05:18:45;;;;;;;18.40;6.50;;;;;;;;;;6200508;23;20183;-53
2022/03/09 05:21:11;;;;;;;9.03;4.90;;;;;;;;;;6201223;23;20376;-53
2022/03/09 05:23:37;;;;;;;10.00;4.93;;;;;;;;;;6200087;23;20386;-52
2022/03/09 05:26:03;;;;;;;11.83;5.27;;;;;;;;;;6198988;23;20406;-52
2022/03/09 05:28:28;;;;;;;16.63;5.97;;;;;;;;;;6201272;23;20383;-52
2022/03/09 05:30:55;;;;;;;6.70;5.20;;;;;;;;;;6203052;23;20156;-52
2022/03/09 05:33:21;;;;;;;6.97;3.67;;;;;;;;;;6200010;23;20383;-51
2022/03/09 05:35:47;;;;;;;6.03;3.90;;;;;;;;;;6199857;23;20392;-52
2022/03/09 05:38:13;;;;;;;8.97;4.67;;;;;;;;;;6201087;23;21320;-53
2022/03/09 05:40:39;;;;;;;6.33;3.60;;;;;;;;;;6199939;23;20404;-52
2022/03/09 05:43:05;;;;;;;7.73;5.40;;;;;;;;;;6199724;23;20371;-52
2022/03/09 05:45:31;;;;;;;9.43;5.20;;;;;;;;;;6200595;23;21020;-53
2022/03/09 05:47:57;;;;;;;18.50;5.57;;;;;;;;;;6197646;23;20449;-56
2022/03/09 05:50:23;;;;;;;11.20;5.47;;;;;;;;;;6198639;23;20462;-52
2022/03/09 05:52:49;;;;;;;5.70;4.40;;;;;;;;;;6199409;23;20379;-52
2022/03/09 05:55:15;;;;;;;9.30;4.10;;;;;;;;;;6200711;23;20766;-52
2022/03/09 05:57:41;;;;;;;6.97;4.83;;;;;;;;;;6200587;23;20364;-52
2022/03/09 06:00:08;;;;;;;7.63;5.77;;;;;;;;;;6198367;23;20375;-54
2022/03/09 06:02:34;;;;;;;7.53;4.13;;;;;;;;;;6197128;23;20368;-53
2022/03/09 06:05:00;;;;;;;9.73;4.73;;;;;;;;;;6201022;23;20429;-52
2022/03/09 06:07:25;;;;;;;5.80;4.47;;;;;;;;;;6197401;23;20375;-53
2022/03/09 06:09:51;;;;;;;9.60;3.73;;;;;;;;;;6200875;23;20379;-52
2022/03/09 06:12:18;;;;;;;6.67;4.50;;;;;;;;;;6197873;23;20895;-52
2022/03/09 06:14:44;;;;;;;15.30;5.40;;;;;;;;;;6200969;23;20435;-53
2022/03/09 06:17:10;;;;;;;6.20;4.60;;;;;;;;;;6200291;23;21033;-53
2022/03/09 06:19:36;;;;;;;7.80;4.57;;;;;;;;;;6200532;23;20379;-52
2022/03/09 06:22:02;;;;;;;8.73;4.93;;;;;;;;;;6197115;23;20378;-53
2022/03/09 06:24:28;;;;;;;9.97;4.90;;;;;;;;;;6196594;23;20422;-54
2022/03/09 06:26:54;;;;;;;6.90;5.07;;;;;;;;;;6193372;23;20421;-52
2022/03/09 06:29:20;;;;;;;10.00;5.20;;;;;;;;;;6195742;23;20989;-53
2022/03/09 06:31:47;;;;;;;7.30;4.93;;;;;;;;;;6196230;23;20371;-53
2022/03/09 06:34:13;;;;;;;9.97;5.60;;;;;;;;;;6196207;23;20806;-54
2022/03/09 06:36:43;;;;;;;6.67;5.17;;;;;;;;;;6197937;23;21044;-52
2022/03/09 06:39:09;;;;;;;10.17;4.70;;;;;;;;;;6201725;23;20466;-53
2022/03/09 06:41:35;;;;;;;26.80;4.90;;;;;;;;;;6200963;23;20435;-52
2022/03/09 06:44:01;;;;;;;12.23;6.03;;;;;;;;;;6199607;23;20363;-53
2022/03/09 06:46:27;;;;;;;6.00;3.87;;;;;;;;;;6200898;23;20459;-53
2022/03/09 06:48:53;;;;;;;14.80;5.63;;;;;;;;;;6199064;23;20374;-52
2022/03/09 06:51:19;;;;;;;8.43;4.93;;;;;;;;;;6200411;23;20367;-53
2022/03/09 06:53:45;;;;;;;9.63;5.47;;;;;;;;;;6200148;23;20411;-53
2022/03/09 06:56:11;;;;;;;8.90;4.97;;;;;;;;;;6201004;23;20394;-53
2022/03/09 06:58:38;;;;;;;29.53;6.27;;;;;;;;;;6200521;23;20386;-52
2022/03/09 07:01:03;;;;;;;7.67;4.87;;;;;;;;;;6196995;23;20387;-52
2022/03/09 07:03:30;;;;;;;6.40;4.30;;;;;;;;;;6201167;23;20375;-53
2022/03/09 07:05:56;;;;;;;8.13;4.90;;;;;;;;;;6201901;23;20406;-52
2022/03/09 07:08:22;;;;;;;7.40;4.30;;;;;;;;;;6202230;23;20372;-50
2022/03/09 07:10:48;;;;;;;7.33;4.87;;;;;;;;;;6200347;23;20376;-53
2022/03/09 07:13:14;;;;;;;9.67;5.33;;;;;;;;;;6200700;23;20374;-52
2022/03/09 07:15:40;;;;;;;13.80;6.40;;;;;;;;;;6200840;23;21004;-52
2022/03/09 07:18:06;;;;;;;8.97;7.37;;;;;;;;;;6204108;23;20858;-52
2022/03/09 07:20:32;;;;;;;8.00;4.73;;;;;;;;;;6203028;23;20366;-52
2022/03/09 07:22:58;;;;;;;9.50;4.90;;;;;;;;;;6201150;23;20550;-52
2022/03/09 07:25:24;;;;;;;22.30;6.90;;;;;;;;;;6202048;23;20934;-52
2022/03/09 07:27:50;;;;;;;9.37;5.80;;;;;;;;;;6199738;23;20442;-52
2022/03/09 07:30:16;;;;;;;9.20;5.97;;;;;;;;;;6201451;23;20406;-51
2022/03/09 07:32:42;;;;;;;8.90;5.50;;;;;;;;;;6201023;23;20468;-52
2022/03/09 07:35:09;;;;;;;10.77;5.60;;;;;;;;;;6202505;23;21107;-51
2022/03/09 07:37:34;;;;;;;8.47;5.43;;;;;;;;;;6202750;23;20399;-52
2022/03/09 07:40:00;;;;;;;13.43;5.50;;;;;;;;;;6203734;23;20379;-55
2022/03/09 07:42:26;;;;;;;19.83;6.23;;;;;;;;;;6202041;23;20499;-53
2022/03/09 07:44:52;;;;;;;10.83;6.67;;;;;;;;;;6202324;23;20379;-53
2022/03/09 07:47:20;;;;;;;10.67;6.23;;;;;;;;;;6203399;23;20372;-53
2022/03/09 07:49:46;;;;;;;10.37;6.40;;;;;;;;;;6202195;23;20379;-53
2022/03/09 07:52:12;;;;;;;14.07;7.60;;;;;;;;;;6201239;23;20386;-53
2022/03/09 07:54:38;;;;;;;8.60;5.90;;;;;;;;;;6202901;23;20438;-53
2022/03/09 07:57:04;;;;;;;11.93;5.30;;;;;;;;;;6202863;23;20924;-55
2022/03/09 07:59:30;;;;;;;8.67;6.47;;;;;;;;;;6201661;23;20383;-52
2022/03/09 08:01:56;;;;;;;13.40;7.30;;;;;;;;;;6201060;23;20372;-53
2022/03/09 08:04:22;;;;;;;10.07;5.80;;;;;;;;;;6202764;23;20450;-52
2022/03/09 08:06:49;;;;;;;12.83;6.00;;;;;;;;;;6202584;23;20363;-53
2022/03/09 08:09:15;;;;;;;11.17;6.33;;;;;;;;;;6201541;23;20380;-53
2022/03/09 08:11:41;;;;;;;10.80;6.00;;;;;;;;;;6202351;23;20379;-52
2022/03/09 08:14:07;;;;;;;9.43;4.80;;;;;;;;;;6202113;23;20513;-53
2022/03/09 08:16:33;;;;;;;12.90;8.00;;;;;;;;;;6200906;23;20406;-51
2022/03/09 08:18:59;;;;;;;11.47;6.40;;;;;;;;;;6199123;23;20373;-53
2022/03/09 08:21:25;;;;;;;14.10;6.80;;;;;;;;;;6200636;23;20384;-52
2022/03/09 08:23:51;;;;;;;9.10;6.60;;;;;;;;;;6199331;23;20394;-52
2022/03/09 08:26:17;;;;;;;11.80;7.20;;;;;;;;;;6200984;23;20406;-52
2022/03/09 08:28:43;;;;;;;9.40;5.77;;;;;;;;;;6199754;23;20370;-51
2022/03/09 08:31:09;;;;;;;7.70;6.30;;;;;;;;;;6202113;23;20980;-52
2022/03/09 08:33:35;;;;;;;9.13;5.23;;;;;;;;;;6201544;23;20702;-53
2022/03/09 08:36:01;;;;;;;10.30;6.63;;;;;;;;;;6201945;23;21134;-52
2022/03/09 08:38:27;;;;;;;7.13;5.70;;;;;;;;;;6199389;23;20382;-51
2022/03/09 08:40:54;;;;;;;6.90;5.40;;;;;;;;;;6200065;23;20391;-52
2022/03/09 08:43:20;;;;;;;10.23;6.07;;;;;;;;;;6199219;23;20379;-51
2022/03/09 08:45:46;;;;;;;12.73;6.30;;;;;;;;;;6201064;23;20796;-52
2022/03/09 08:48:12;;;;;;;11.00;6.20;;;;;;;;;;6202133;23;20410;-53
2022/03/09 08:50:38;;;;;;;8.90;5.93;;;;;;;;;;6201671;23;20376;-51
2022/03/09 08:53:05;;;;;;;8.70;5.80;;;;;;;;;;6200286;23;20379;-51
2022/03/09 08:55:31;;;;;;;8.60;6.07;;;;;;;;;;6200505;23;20964;-52
2022/03/09 08:57:57;;;;;;;11.00;6.30;;;;;;;;;;6201176;23;20383;-52
2022/03/09 09:00:23;;;;;;;7.90;5.80;;;;;;;;;;6199258;23;20359;-53
2022/03/09 09:02:49;;;;;;;9.87;6.73;;;;;;;;;;6197492;23;20375;-54
2022/03/09 09:05:15;;;;;;;15.83;6.63;;;;;;;;;;6201304;23;20453;-52
2022/03/09 09:07:41;;;;;;;13.53;6.90;;;;;;;;;;6200895;23;20364;-52
2022/03/09 09:10:07;;;;;;;12.03;6.77;;;;;;;;;;6200439;23;20376;-52
2022/03/09 09:12:33;;;;;;;9.97;6.50;;;;;;;;;;6199964;23;20359;-53
2022/03/09 09:14:59;;;;;;;8.00;5.93;;;;;;;;;;6199539;23;20434;-52
2022/03/09 09:17:25;;;;;;;9.40;5.90;;;;;;;;;;6201980;23;20387;-52
2022/03/09 09:19:51;;;;;;;9.87;6.70;;;;;;;;;;6202425;23;20406;-52
2022/03/09 09:22:17;;;;;;;6.27;5.37;;;;;;;;;;6201544;23;20418;-52
2022/03/09 09:24:43;;;;;;;11.40;6.70;;;;;;;;;;6202650;23;20371;-52
2022/03/09 09:27:09;;;;;;;8.90;5.80;;;;;;;;;;6201087;23;20152;-52
2022/03/09 09:29:35;;;;;;;11.33;6.50;;;;;;;;;;6202571;23;20387;-53
2022/03/09 09:32:01;;;;;;;13.60;6.57;;;;;;;;;;6199736;23;20301;-52
2022/03/09 09:34:27;;;;;;;9.80;6.67;;;;;;;;;;6194463;23;20430;-59
2022/03/09 09:36:53;;;;;;;9.57;6.17;;;;;;;;;;6202375;23;20379;-52
2022/03/09 09:39:20;;;;;;;8.00;5.87;;;;;;;;;;6202227;23;20701;-52
2022/03/09 09:41:47;;;;;;;10.63;6.70;;;;;;;;;;6200154;23;20371;-52
2022/03/09 09:44:13;;;;;;;13.10;8.10;;;;;;;;;;6199624;23;20390;-52
2022/03/09 09:46:40;;;;;;;13.10;7.87;;;;;;;;;;6202865;23;20700;-53
2022/03/09 09:49:07;;;;;;;9.50;6.57;;;;;;;;;;6202304;23;20367;-53
2022/03/09 09:51:33;;;;;;;14.17;7.83;;;;;;;;;;6196475;23;20359;-51
2022/03/09 09:53:58;;;;;;;12.07;6.33;;;;;;;;;;6198846;23;20435;-53
2022/03/09 09:56:24;;;;;;;12.57;7.30;;;;;;;;;;6199964;23;20371;-53
2022/03/09 09:58:50;;;;;;;10.00;7.70;;;;;;;;;;6200479;23;20160;-52
2022/03/09 10:01:16;;;;;;;10.07;6.77;;;;;;;;;;6198441;23;20608;-51
2022/03/09 10:03:42;;;;;;;12.67;7.60;;;;;;;;;;6202223;23;20777;-53
2022/03/09 10:06:08;;;;;;;13.30;8.30;;;;;;;;;;6204312;23;20850;-52
2022/03/09 10:08:35;;;;;;;9.07;6.63;;;;;;;;;;6202367;23;21290;-53
2022/03/09 10:11:02;;;;;;;9.30;6.80;;;;;;;;;;6203597;23;20390;-52
2022/03/09 10:13:28;;;;;;;10.23;7.63;;;;;;;;;;6202890;23;20391;-53
2022/03/09 10:16:30;;;;;;;12.43;9.63;;;;;;;;;;6203552;23;20445;-52
2022/03/09 10:18:57;;;;;;;13.90;7.90;;;;;;;;;;6155009;23;20870;-52
2022/03/09 10:21:28;;;;;;;12.20;8.80;;;;;;;;;;6203000;23;20380;-56
2022/03/09 10:24:06;;;;;;;10.50;7.13;;;;;;;;;;6204503;23;20932;-52
2022/03/09 10:26:34;;;;;;;11.60;8.53;;;;;;;;;;6202762;23;20375;-52
2022/03/09 10:29:03;;;;;;;12.33;8.67;;;;;;;;;;6202836;23;20659;-51
2022/03/09 10:31:34;;;;;;;11.33;8.53;;;;;;;;;;6203162;23;20520;-51
2022/03/09 10:34:10;;;;;;;11.30;8.60;;;;;;;;;;6203401;23;20458;-52
2022/03/09 10:36:36;;;;;;;13.33;7.60;;;;;;;;;;6202728;23;20535;-53
2022/03/09 10:39:12;;;;;;;14.30;9.00;;;;;;;;;;6203896;23;20376;-53
2022/03/09 10:41:38;;;;;;;12.40;7.67;;;;;;;;;;6201755;23;20872;-52
2022/03/09 10:44:04;;;;;;;11.93;8.13;;;;;;;;;;6202864;23;20367;-52
2022/03/09 10:46:40;;;;;;;13.27;8.43;;;;;;;;;;6202685;23;20434;-53
2022/03/09 10:49:07;;;;;;;12.40;7.93;;;;;;;;;;6203827;23;20368;-53
2022/03/09 10:51:37;;;;;;;12.73;8.23;;;;;;;;;;6201260;23;20356;-53
2022/03/09 10:54:03;;;;;;;12.90;7.57;;;;;;;;;;6204522;23;20429;-51
2022/03/09 10:56:29;;;;;;;11.20;8.57;;;;;;;;;;6204884;23;20367;-52
2022/03/09 10:58:55;;;;;;;15.40;10.07;;;;;;;;;;6203564;23;20398;-53
2022/03/09 11:01:23;;;;;;;12.87;7.83;;;;;;;;;;6200417;23;20430;-53
2022/03/09 11:03:49;;;;;;;12.03;9.27;;;;;;;;;;6203980;23;20372;-53
2022/03/09 11:06:17;;;;;;;13.23;9.80;;;;;;;;;;6202706;23;20367;-52
2022/03/09 11:08:43;;;;;;;16.43;9.60;;;;;;;;;;6203791;23;20375;-51
2022/03/09 11:11:09;;;;;;;13.23;7.80;;;;;;;;;;6203362;23;20500;-52
2022/03/09 11:13:35;;;;;;;15.87;9.27;;;;;;;;;;6202239;23;20371;-52
2022/03/09 11:16:01;;;;;;;14.60;8.80;;;;;;;;;;6203482;23;20409;-52
2022/03/09 11:18:28;;;;;;;12.80;9.53;;;;;;;;;;6203127;23;20773;-53
2022/03/09 11:20:55;;;;;;;12.53;8.80;;;;;;;;;;6203088;23;20391;-53
2022/03/09 11:23:21;;;;;;;12.63;8.97;;;;;;;;;;6202312;23;20458;-52
2022/03/09 11:25:51;;;;;;;14.07;9.20;;;;;;;;;;6202478;23;20372;-52
2022/03/09 11:28:24;;;;;;;16.63;10.30;;;;;;;;;;6200973;23;20390;-53
2022/03/09 11:30:54;;;;;;;15.83;8.97;;;;;;;;;;6203109;23;20392;-52
2022/03/09 11:33:38;;;;;;;14.97;9.10;;;;;;;;;;6203824;23;20775;-53
2022/03/09 11:36:07;;;;;;;9.73;8.53;;;;;;;;;;6203202;23;21408;-54
2022/03/09 11:38:33;;;;;;;15.67;10.37;;;;;;;;;;6200787;23;20375;-52
2022/03/09 11:41:15;;;;;;;22.10;10.73;;;;;;;;;;6203760;23;20371;-52
2022/03/09 11:43:41;;;;;;;15.03;10.60;;;;;;;;;;6202238;23;20155;-51
2022/03/09 11:46:07;;;;;;;14.27;10.87;;;;;;;;;;6203637;23;20367;-55
2022/03/09 11:48:48;;;;;;;17.20;10.50;;;;;;;;;;6205762;23;20255;-53
2022/03/09 11:51:14;;;;;;;14.10;10.23;;;;;;;;;;6205463;23;20374;-54
2022/03/09 11:53:43;;;;;;;12.53;10.20;;;;;;;;;;6205024;23;20395;-55
2022/03/09 11:56:25;;;;;;;17.00;11.77;;;;;;;;;;6201844;23;20380;-51
2022/03/09 11:59:09;;;;;;;15.13;10.87;;;;;;;;;;6200626;23;20379;-53
2022/03/09 12:01:54;;;;;;;16.70;11.13;;;;;;;;;;6203555;23;20698;-53
2022/03/09 12:04:39;;;;;;;16.70;11.00;;;;;;;;;;6206270;23;20433;-52
2022/03/09 12:07:05;;;;;;;28.57;10.70;;;;;;;;;;6203294;23;20373;-53
2022/03/09 12:09:49;;;;;;;18.00;10.00;;;;;;;;;;6206599;23;20706;-53
2022/03/09 12:12:15;;;;;;;20.70;12.77;;;;;;;;;;6202563;23;20382;-53
2022/03/09 12:15:00;;;;;;;13.50;11.57;;;;;;;;;;6204955;23;20977;-53
2022/03/09 12:17:30;;;;;;;20.23;11.00;;;;;;;;;;6204971;23;20164;-53
2022/03/09 12:20:14;;;;;;;14.23;11.00;;;;;;;;;;6206498;23;20367;-52
2022/03/09 12:23:05;;;;;;;16.57;12.30;;;;;;;;;;6201120;23;20422;-52
2022/03/09 12:25:37;;;;;;;16.07;11.90;;;;;;;;;;6202189;23;20370;-52
2022/03/09 12:28:28;;;;;;;13.83;11.13;;;;;;;;;;6202426;23;20367;-56
2022/03/09 12:30:57;;;;;;;17.97;12.77;;;;;;;;;;6193967;23;20858;-52
2022/03/09 12:33:33;;;;;;;13.13;10.87;;;;;;;;;;6204541;23;20376;-53
2022/03/09 12:36:05;;;;;;;17.90;11.97;;;;;;;;;;6203160;23;20434;-52
2022/03/09 12:38:41;;;;;;;14.00;10.80;;;;;;;;;;6202412;23;20445;-52
2022/03/09 12:41:07;;;;;;;17.67;11.93;;;;;;;;;;6202012;23;20371;-52
2022/03/09 12:43:46;;;;;;;16.00;11.00;;;;;;;;;;6199182;23;20457;-53
2022/03/09 12:46:12;;;;;;;12.67;11.10;;;;;;;;;;6201386;23;20379;-51
2022/03/09 12:48:41;;;;;;;13.90;10.20;;;;;;;;;;6200116;23;20371;-52
2022/03/09 12:51:07;;;;;;;14.40;11.50;;;;;;;;;;6202016;23;20854;-52
2022/03/09 12:53:33;;;;;;;17.27;11.37;;;;;;;;;;6201393;23;20382;-53
2022/03/09 12:56:12;;;;;;;15.63;12.10;;;;;;;;;;6201704;23;20279;-52
2022/03/09 12:58:39;;;;;;;12.27;10.97;;;;;;;;;;6199191;23;20524;-52
2022/03/09 13:01:05;;;;;;;15.17;11.50;;;;;;;;;;6197946;23;20376;-51
2022/03/09 13:03:31;;;;;;;13.30;11.80;;;;;;;;;;6199012;23;20359;-51
2022/03/09 13:05:57;;;;;;;15.17;11.50;;;;;;;;;;6201758;23;20411;-52
2022/03/09 13:08:22;;;;;;;15.37;11.37;;;;;;;;;;6201478;23;20888;-52
2022/03/09 13:10:52;;;;;;;13.50;11.17;;;;;;;;;;6198415;23;20167;-53
2022/03/09 13:13:18;;;;;;;13.50;11.03;;;;;;;;;;6196620;23;20559;-53
2022/03/09 13:15:46;;;;;;;14.90;11.90;;;;;;;;;;6200631;23;21072;-52
2022/03/09 13:18:12;;;;;;;17.40;11.70;;;;;;;;;;6201056;23;20379;-53
2022/03/09 13:20:39;;;;;;;14.30;10.47;;;;;;;;;;6198987;23;20380;-53
2022/03/09 13:23:05;;;;;;;12.90;11.50;;;;;;;;;;6198098;23;20467;-52
2022/03/09 13:25:31;;;;;;;13.30;10.23;;;;;;;;;;6200232;23;20386;-53
2022/03/09 13:28:07;;;;;;;14.33;11.50;;;;;;;;;;6199744;23;20403;-53
2022/03/09 13:30:33;;;;;;;14.87;11.13;;;;;;;;;;6200071;23;20876;-52
2022/03/09 13:33:11;;;;;;;13.80;10.97;;;;;;;;;;6197411;23;20463;-53
2022/03/09 13:35:46;;;;;;;13.17;9.53;;;;;;;;;;6200211;23;20458;-52
2022/03/09 13:38:12;;;;;;;14.07;9.40;;;;;;;;;;6201157;23;20374;-51
2022/03/09 13:40:44;;;;;;;14.30;8.97;;;;;;;;;;6197907;23;20375;-53
2022/03/09 13:43:10;;;;;;;12.03;8.93;;;;;;;;;;6198384;23;20372;-53
2022/03/09 13:45:40;;;;;;;11.50;8.40;;;;;;;;;;6200309;23;20724;-52
2022/03/09 13:48:07;;;;;;;12.90;8.40;;;;;;;;;;6201473;23;20374;-53
2022/03/09 13:50:42;;;;;;;15.43;7.60;;;;;;;;;;6202303;23;20425;-52
2022/03/09 13:53:08;;;;;;;12.27;8.20;;;;;;;;;;6200996;23;20363;-53
2022/03/09 13:55:44;;;;;;;15.20;8.00;;;;;;;;;;6201557;23;20644;-53
2022/03/09 13:58:14;;;;;;;10.60;8.43;;;;;;;;;;6199001;23;20398;-52
2022/03/09 14:00:40;;;;;;;12.27;7.90;;;;;;;;;;6199378;23;20371;-54
2022/03/09 14:03:13;;;;;;;11.70;8.30;;;;;;;;;;6199314;23;20374;-52
2022/03/09 14:05:39;;;;;;;11.43;7.00;;;;;;;;;;6200202;23;20363;-54
2022/03/09 14:08:05;;;;;;;13.60;7.93;;;;;;;;;;6199133;23;20383;-52
2022/03/09 14:10:36;;;;;;;11.60;8.20;;;;;;;;;;6201262;23;20463;-52
2022/03/09 14:13:10;;;;;;;12.27;8.60;;;;;;;;;;6199392;23;20380;-51
2022/03/09 14:15:36;;;;;;;14.70;8.30;;;;;;;;;;6201887;23;21012;-51
2022/03/09 14:18:02;;;;;;;10.57;7.13;;;;;;;;;;6199561;23;20415;-52
2022/03/09 14:20:28;;;;;;;16.20;7.60;;;;;;;;;;6199791;23;20382;-53
2022/03/09 14:22:54;;;;;;;11.83;7.90;;;;;;;;;;6199741;23;20363;-52
2022/03/09 14:25:20;;;;;;;10.60;8.00;;;;;;;;;;6201157;23;20379;-52
2022/03/09 14:27:46;;;;;;;10.83;8.73;;;;;;;;;;6199821;23;20407;-53
2022/03/09 14:30:14;;;;;;;10.13;6.70;;;;;;;;;;6196852;23;20388;-53
2022/03/09 14:32:40;;;;;;;14.33;8.73;;;;;;;;;;6200281;23;20360;-53
2022/03/09 14:35:06;;;;;;;13.57;9.43;;;;;;;;;;6201987;23;20435;-50
2022/03/09 14:37:32;;;;;;;12.40;9.27;;;;;;;;;;6202408;23;20517;-53